sensor_id;sensor_type;location;lat;lon;timestamp;temperature;humidity
26613;DHT22;14248;57.652;11.908;2023-05-08T13:25:21;24.50;38.10
26613;DHT22;14248;57.652;11.908;2023-05-08T13:35:06;22.30;51.30
26613;DHT22;14248;57.652;11.908;2023-05-08T13:44:50;25.50;47.20
26613;DHT22;14248;57.652;11.908;2023-05-08T13:47:16;27.40;42.10
26613;DHT22;14248;57.652;11.908;2023-05-08T13:52:09;27.60;42.30
26613;DHT22;14248;57.652;11.908;2023-05-08T14:31:06;28.60;40.90
26613;DHT22;14248;57.652;11.908;2023-05-08T14:33:32;32.30;37.00
26613;DHT22;14248;57.652;11.908;2023-05-08T14:35:57;32.40;36.00
26613;DHT22;14248;57.652;11.908;2023-05-08T14:38:23;32.40;36.30
26613;DHT22;14248;57.652;11.908;2023-05-08T14:40:49;32.30;36.10
26613;DHT22;14248;57.652;11.908;2023-05-08T14:43:16;32.30;35.80
26613;DHT22;14248;57.652;11.908;2023-05-08T14:45:41;32.20;35.50
26613;DHT22;14248;57.652;11.908;2023-05-08T14:48:07;32.30;36.30
26613;DHT22;14248;57.652;11.908;2023-05-08T14:50:33;32.40;35.30
26613;DHT22;14248;57.652;11.908;2023-05-08T14:52:59;32.30;35.40
26613;DHT22;14248;57.652;11.908;2023-05-08T14:55:24;32.20;35.60
26613;DHT22;14248;57.652;11.908;2023-05-08T14:57:50;32.20;36.20
26613;DHT22;14248;57.652;11.908;2023-05-08T15:00:17;32.30;36.00
26613;DHT22;14248;57.652;11.908;2023-05-08T15:02:43;32.20;36.10
26613;DHT22;14248;57.652;11.908;2023-05-08T15:24:42;32.10;36.50
26613;DHT22;14248;57.652;11.908;2023-05-08T16:13:32;32.70;36.30
26613;DHT22;14248;57.652;11.908;2023-05-08T16:16:01;33.60;33.70
26613;DHT22;14248;57.652;11.908;2023-05-08T16:25:48;33.00;33.70
26613;DHT22;14248;57.652;11.908;2023-05-08T16:28:13;31.70;35.80
26613;DHT22;14248;57.652;11.908;2023-05-08T16:37:59;31.70;34.80
26613;DHT22;14248;57.652;11.908;2023-05-08T16:40:25;33.80;34.30
26613;DHT22;14248;57.652;11.908;2023-05-08T16:42:51;34.20;33.30
26613;DHT22;14248;57.652;11.908;2023-05-08T16:50:11;34.40;33.50
26613;DHT22;14248;57.652;11.908;2023-05-08T16:52:37;34.90;31.40
26613;DHT22;14248;57.652;11.908;2023-05-08T16:55:03;34.70;31.40
26613;DHT22;14248;57.652;11.908;2023-05-08T16:57:30;34.60;31.40
26613;DHT22;14248;57.652;11.908;2023-05-08T16:59:56;34.50;31.50
26613;DHT22;14248;57.652;11.908;2023-05-08T17:02:22;34.50;31.70
26613;DHT22;14248;57.652;11.908;2023-05-08T17:04:48;34.50;30.40
26613;DHT22;14248;57.652;11.908;2023-05-08T17:09:41;34.10;30.50
26613;DHT22;14248;57.652;11.908;2023-05-08T17:12:07;32.90;31.10
26613;DHT22;14248;57.652;11.908;2023-05-08T17:14:33;32.40;31.50
26613;DHT22;14248;57.652;11.908;2023-05-08T17:34:03;32.10;31.70
26613;DHT22;14248;57.652;11.908;2023-05-08T17:36:29;31.10;33.50
26613;DHT22;14248;57.652;11.908;2023-05-08T17:38:55;31.20;33.10
26613;DHT22;14248;57.652;11.908;2023-05-08T17:46:13;31.20;32.60
26613;DHT22;14248;57.652;11.908;2023-05-08T17:48:39;30.50;34.00
26613;DHT22;14248;57.652;11.908;2023-05-08T17:51:04;30.50;33.90
26613;DHT22;14248;57.652;11.908;2023-05-08T17:53:31;30.60;33.90
26613;DHT22;14248;57.652;11.908;2023-05-08T17:55:57;30.80;33.80
26613;DHT22;14248;57.652;11.908;2023-05-08T17:58:23;30.80;33.70
26613;DHT22;14248;57.652;11.908;2023-05-08T18:00:50;30.80;33.70
26613;DHT22;14248;57.652;11.908;2023-05-08T18:03:15;30.80;33.80
26613;DHT22;14248;57.652;11.908;2023-05-08T18:05:41;30.80;33.70
26613;DHT22;14248;57.652;11.908;2023-05-08T18:08:07;30.50;34.30
26613;DHT22;14248;57.652;11.908;2023-05-08T18:10:34;30.20;33.70
26613;DHT22;14248;57.652;11.908;2023-05-08T18:13:00;29.90;34.90
